Time;durP1;ratioP1;P1;durP2;ratioP2;P2;SDS_P1;SDS_P2;PMS_P1;PMS_P2;Temp;Humidity;BMP_temperature;BMP_pressure;BME280_temperature;BME280_humidity;BME280_pressure;Samples;Min_cycle;Max_cycle;Signal;HPM_P1;HPM_P2
2021/11/05 00:00:26;;;;;;;3.70;2.30;;;12.40;99.90;;;;;;5102677;28;20511;-68
2021/11/05 00:02:57;;;;;;;5.40;2.80;;;12.30;99.90;;;;;;5100079;28;20877;-71
2021/11/05 00:05:29;;;;;;;5.90;2.60;;;12.20;99.90;;;;;;5098075;28;20558;-69
2021/11/05 00:08:07;;;;;;;4.03;2.40;;;12.20;99.90;;;;;;5098893;28;20858;-71
2021/11/05 00:10:39;;;;;;;5.33;2.90;;;12.20;99.90;;;;;;5107180;28;20445;-70
2021/11/05 00:13:11;;;;;;;7.27;2.70;;;12.20;99.90;;;;;;5092044;28;20454;-71
2021/11/05 00:15:42;;;;;;;5.50;2.63;;;12.20;99.90;;;;;;5090920;28;20500;-70
2021/11/05 00:18:13;;;;;;;6.27;3.10;;;12.10;99.90;;;;;;5109261;28;20477;-71
2021/11/05 00:20:44;;;;;;;4.77;2.40;;;12.00;99.90;;;;;;5108723;28;20493;-71
2021/11/05 00:23:17;;;;;;;7.90;2.57;;;12.00;99.90;;;;;;5096607;28;20511;-70
2021/11/05 00:25:48;;;;;;;8.97;3.23;;;11.90;99.90;;;;;;5109307;28;20957;-71
2021/11/05 00:28:19;;;;;;;7.30;2.87;;;11.90;99.90;;;;;;5112147;28;20563;-70
2021/11/05 00:30:50;;;;;;;7.33;2.80;;;11.90;99.90;;;;;;5107187;28;20488;-70
2021/11/05 00:33:21;;;;;;;8.63;2.97;;;11.90;99.90;;;;;;5109190;28;20487;-70
2021/11/05 00:35:52;;;;;;;6.20;2.57;;;11.90;99.90;;;;;;5101826;28;20489;-70
2021/11/05 00:38:25;;;;;;;7.27;3.30;;;11.90;99.90;;;;;;5097751;28;20915;-69
2021/11/05 00:40:56;;;;;;;8.40;3.30;;;11.80;99.90;;;;;;5103306;28;20460;-70
2021/11/05 00:43:27;;;;;;;8.10;2.90;;;11.80;99.90;;;;;;5096829;28;20473;-70
2021/11/05 00:45:58;;;;;;;9.20;3.63;;;11.80;99.90;;;;;;5100327;28;20493;-70
2021/11/05 00:48:29;;;;;;;5.90;2.40;;;11.70;99.90;;;;;;5090318;28;20557;-70
2021/11/05 00:51:00;;;;;;;9.07;3.57;;;11.60;99.90;;;;;;5098414;28;20548;-68
2021/11/05 00:53:33;;;;;;;6.63;3.20;;;11.60;99.90;;;;;;5095554;28;20500;-71
2021/11/05 00:56:04;;;;;;;9.13;3.40;;;11.60;99.90;;;;;;5098351;28;20489;-71
2021/11/05 00:58:36;;;;;;;6.10;2.30;;;11.60;99.90;;;;;;5099133;28;20822;-70
2021/11/05 01:01:07;;;;;;;14.53;3.40;;;11.50;99.90;;;;;;5091620;28;20529;-68
2021/11/05 01:03:38;;;;;;;11.40;3.83;;;11.50;99.90;;;;;;5110656;28;20587;-70
2021/11/05 01:06:09;;;;;;;8.30;3.77;;;11.50;99.90;;;;;;5100445;28;20488;-70
2021/11/05 01:08:43;;;;;;;8.10;4.00;;;11.40;99.90;;;;;;5111443;28;20502;-69
2021/11/05 01:11:14;;;;;;;8.23;3.70;;;11.40;99.90;;;;;;5100286;28;20503;-70
2021/11/05 01:13:45;;;;;;;7.10;4.07;;;11.30;99.90;;;;;;5110880;28;20540;-70
2021/11/05 01:16:16;;;;;;;7.00;3.80;;;11.30;99.90;;;;;;5104105;28;20485;-70
2021/11/05 01:18:48;;;;;;;8.18;3.10;;;11.30;99.90;;;;;;5109774;28;20483;-70
2021/11/05 01:21:19;;;;;;;8.63;3.37;;;11.20;99.90;;;;;;5090990;28;20247;-70
2021/11/05 01:23:52;;;;;;;12.60;5.03;;;11.10;99.90;;;;;;5101681;28;20504;-69
2021/11/05 01:26:23;;;;;;;9.07;4.20;;;11.10;99.90;;;;;;5091069;28;20478;-69
2021/11/05 01:28:54;;;;;;;10.68;3.75;;;11.10;99.90;;;;;;5097558;28;20545;-70
2021/11/05 01:31:25;;;;;;;8.47;3.73;;;11.10;99.90;;;;;;5109581;28;20303;-70
2021/11/05 01:33:56;;;;;;;11.10;4.60;;;11.10;99.90;;;;;;5108231;28;20445;-70
2021/11/05 01:36:28;;;;;;;8.70;3.63;;;11.00;99.90;;;;;;5102571;28;21034;-70
2021/11/05 01:39:00;;;;;;;9.80;4.13;;;10.90;99.90;;;;;;5097576;28;20496;-68
2021/11/05 01:41:31;;;;;;;13.40;5.80;;;10.90;99.90;;;;;;5097828;28;20306;-68
2021/11/05 01:44:02;;;;;;;9.48;5.45;;;10.80;99.90;;;;;;5106152;28;20895;-68
2021/11/05 01:46:40;;;;;;;14.20;5.03;;;10.80;99.90;;;;;;5090617;28;20353;-69
2021/11/05 01:49:13;;;;;;;10.52;4.90;;;10.80;99.90;;;;;;5089162;28;21306;-71
2021/11/05 01:51:44;;;;;;;13.20;5.40;;;10.80;99.90;;;;;;5110983;28;20272;-70
2021/11/05 01:54:17;;;;;;;12.00;5.30;;;10.70;99.90;;;;;;5091371;28;20654;-70
2021/11/05 01:56:48;;;;;;;11.93;4.70;;;10.70;99.90;;;;;;5100214;28;20294;-70
2021/11/05 01:59:25;;;;;;;14.80;5.28;;;10.70;99.90;;;;;;5095127;28;20573;-70
2021/11/05 02:01:57;;;;;;;11.75;5.93;;;10.60;99.90;;;;;;5088565;28;20274;-70
2021/11/05 02:04:28;;;;;;;9.00;5.53;;;10.50;99.90;;;;;;5090841;28;20254;-68
2021/11/05 02:07:00;;;;;;;11.10;5.70;;;10.50;99.90;;;;;;5109207;28;20462;-70
2021/11/05 02:09:34;;;;;;;8.65;5.53;;;10.40;99.90;;;;;;5110562;28;20621;-70
2021/11/05 02:12:06;;;;;;;11.88;4.68;;;10.50;99.90;;;;;;5098004;28;20243;-70
2021/11/05 02:14:39;;;;;;;10.27;5.60;;;10.60;99.90;;;;;;5100534;28;20251;-70
2021/11/05 02:17:12;;;;;;;8.25;4.72;;;10.70;99.90;;;;;;5108924;28;20532;-70
2021/11/05 02:19:44;;;;;;;7.70;4.10;;;10.80;99.90;;;;;;5096843;28;20723;-69
2021/11/05 02:22:16;;;;;;;6.77;4.13;;;10.90;99.90;;;;;;5100252;28;20486;-69
2021/11/05 02:24:48;;;;;;;8.53;3.83;;;10.90;99.90;;;;;;5097842;28;20492;-70
2021/11/05 02:27:19;;;;;;;6.57;4.23;;;10.90;99.90;;;;;;5098806;28;20489;-70
2021/11/05 02:29:50;;;;;;;5.60;3.80;;;10.90;99.90;;;;;;5099786;28;20485;-70
2021/11/05 02:32:21;;;;;;;4.50;3.58;;;11.00;99.90;;;;;;5089608;28;20891;-69
2021/11/05 02:34:52;;;;;;;8.20;4.13;;;10.90;99.90;;;;;;5105262;28;20243;-69
2021/11/05 02:37:27;;;;;;;6.03;3.63;;;10.80;99.90;;;;;;5090099;28;20885;-70
2021/11/05 02:39:58;;;;;;;8.63;3.90;;;10.80;99.90;;;;;;5090469;28;20568;-70
2021/11/05 02:42:29;;;;;;;8.03;4.13;;;10.70;99.90;;;;;;5103325;28;20244;-70
2021/11/05 02:45:00;;;;;;;9.07;3.60;;;10.70;99.90;;;;;;5088308;28;21391;-70
2021/11/05 02:47:31;;;;;;;10.23;4.53;;;10.70;99.90;;;;;;5096010;28;20261;-69
2021/11/05 02:50:05;;;;;;;7.90;3.67;;;10.60;99.90;;;;;;5087944;28;20451;-69
2021/11/05 02:52:38;;;;;;;8.27;3.88;;;10.60;99.90;;;;;;5089488;28;20330;-69
2021/11/05 02:55:11;;;;;;;8.23;3.90;;;10.60;99.90;;;;;;5088179;28;20258;-69
2021/11/05 02:57:42;;;;;;;10.82;3.83;;;10.70;99.90;;;;;;5089326;28;20314;-71
2021/11/05 03:00:15;;;;;;;9.30;4.13;;;10.60;99.90;;;;;;5095297;28;20655;-70
2021/11/05 03:02:47;;;;;;;8.00;4.10;;;10.60;99.90;;;;;;5097325;28;20914;-69
2021/11/05 03:05:18;;;;;;;6.53;3.77;;;10.40;99.90;;;;;;5096077;28;20217;-70
2021/11/05 03:07:52;;;;;;;7.07;4.05;;;10.30;99.90;;;;;;5103980;28;20488;-69
2021/11/05 03:10:23;;;;;;;7.95;3.97;;;10.20;99.90;;;;;;5095194;28;20312;-70
2021/11/05 03:12:54;;;;;;;8.32;3.53;;;10.10;99.90;;;;;;5097674;28;20288;-70
2021/11/05 03:15:25;;;;;;;7.70;4.23;;;10.10;99.90;;;;;;5102562;28;20254;-69
2021/11/05 03:17:56;;;;;;;15.65;4.65;;;10.10;99.90;;;;;;5096954;28;20492;-69
2021/11/05 03:20:27;;;;;;;10.43;5.18;;;10.00;99.90;;;;;;5089433;28;20231;-70
2021/11/05 03:23:00;;;;;;;9.20;4.53;;;10.00;99.90;;;;;;5095189;28;20292;-69
2021/11/05 03:25:31;;;;;;;12.20;6.97;;;9.90;99.90;;;;;;5103329;28;20212;-69
2021/11/05 03:28:03;;;;;;;11.18;4.43;;;9.90;99.90;;;;;;5093476;28;20878;-69
2021/11/05 03:30:34;;;;;;;9.90;4.35;;;9.90;99.90;;;;;;5103703;28;20296;-69
2021/11/05 03:33:06;;;;;;;7.82;4.05;;;9.90;99.90;;;;;;5097476;28;20694;-70
2021/11/05 03:35:37;;;;;;;9.93;4.70;;;9.80;99.90;;;;;;5110912;28;20211;-70
2021/11/05 03:38:09;;;;;;;9.00;6.15;;;9.70;99.90;;;;;;5099003;28;20251;-69
2021/11/05 03:40:41;;;;;;;9.80;6.53;;;9.60;99.90;;;;;;5104128;28;20318;-69
2021/11/05 03:43:12;;;;;;;10.95;6.70;;;9.40;99.90;;;;;;5093221;28;20678;-69
2021/11/05 03:45:43;;;;;;;11.15;5.80;;;9.40;99.90;;;;;;5091517;28;20243;-70
2021/11/05 03:48:14;;;;;;;11.48;6.80;;;9.40;99.90;;;;;;5110398;28;20247;-70
2021/11/05 03:50:45;;;;;;;11.50;5.40;;;9.30;99.90;;;;;;5110049;28;20255;-70
2021/11/05 03:53:18;;;;;;;8.93;4.97;;;9.40;99.90;;;;;;5107153;28;20296;-69
2021/11/05 03:55:49;;;;;;;9.02;4.00;;;9.40;99.90;;;;;;5106146;28;20219;-70
2021/11/05 03:58:20;;;;;;;8.63;4.60;;;9.50;99.90;;;;;;5098549;28;20211;-69
2021/11/05 04:00:51;;;;;;;9.25;4.40;;;9.60;99.90;;;;;;5106747;28;20375;-70
2021/11/05 04:03:22;;;;;;;9.10;4.38;;;9.60;99.90;;;;;;5104152;28;20231;-69
2021/11/05 04:05:54;;;;;;;11.70;4.68;;;9.70;99.90;;;;;;5106860;27;20211;-69
2021/11/05 04:08:26;;;;;;;6.80;4.00;;;9.80;99.90;;;;;;5110598;28;20622;-69
2021/11/05 04:11:00;;;;;;;10.27;4.88;;;9.90;99.90;;;;;;5104482;28;20445;-69
2021/11/05 04:13:31;;;;;;;7.63;3.63;;;10.00;99.90;;;;;;5092734;28;20252;-69
2021/11/05 04:16:01;;;;;;;7.97;3.65;;;10.00;99.90;;;;;;5091039;28;20243;-69
2021/11/05 04:18:33;;;;;;;10.63;3.10;;;10.10;99.90;;;;;;5098883;28;20243;-69
2021/11/05 04:21:04;;;;;;;8.65;4.40;;;10.10;99.90;;;;;;5095747;28;20258;-69
2021/11/05 04:23:36;;;;;;;5.60;3.30;;;10.10;99.90;;;;;;5105947;28;20247;-69
2021/11/05 04:26:08;;;;;;;10.85;4.45;;;10.20;99.90;;;;;;5106626;28;20446;-69
2021/11/05 04:28:39;;;;;;;7.17;4.20;;;10.20;99.90;;;;;;5104207;28;20223;-69
2021/11/05 04:31:11;;;;;;;10.13;4.97;;;10.20;99.90;;;;;;5094606;28;20485;-69
2021/11/05 04:33:43;;;;;;;6.37;4.07;;;10.30;99.90;;;;;;5103000;28;20454;-69
2021/11/05 04:36:16;;;;;;;9.40;4.60;;;10.30;99.90;;;;;;5095520;28;20496;-69
2021/11/05 04:38:48;;;;;;;5.67;3.90;;;10.40;99.90;;;;;;5103979;28;20298;-70
2021/11/05 04:41:20;;;;;;;6.23;3.83;;;10.40;99.90;;;;;;5105328;28;20824;-69
2021/11/05 04:43:52;;;;;;;8.10;4.27;;;10.50;99.90;;;;;;5099934;28;20552;-69
2021/11/05 04:46:23;;;;;;;7.70;4.30;;;10.40;99.90;;;;;;5107673;28;20453;-69
2021/11/05 04:48:54;;;;;;;5.07;3.92;;;10.40;99.90;;;;;;5102138;28;20502;-69
2021/11/05 04:51:25;;;;;;;6.50;3.83;;;10.50;99.90;;;;;;5111686;28;20207;-69
2021/11/05 04:53:57;;;;;;;7.63;3.47;;;10.50;99.90;;;;;;5105458;28;20450;-69
2021/11/05 04:56:29;;;;;;;4.77;3.30;;;10.50;99.90;;;;;;5111356;28;20536;-69
2021/11/05 04:59:00;;;;;;;8.57;3.60;;;10.40;99.90;;;;;;5108818;28;20529;-69
2021/11/05 05:01:31;;;;;;;8.50;4.60;;;10.40;99.90;;;;;;5102985;28;20485;-69
2021/11/05 05:04:02;;;;;;;7.10;3.63;;;10.40;99.90;;;;;;5098940;28;20454;-69
2021/11/05 05:06:33;;;;;;;7.87;3.37;;;10.40;99.90;;;;;;5106529;28;20473;-69
2021/11/05 05:09:06;;;;;;;6.50;4.03;;;10.40;99.90;;;;;;5108093;27;20551;-69
2021/11/05 05:11:37;;;;;;;6.63;3.43;;;10.50;99.90;;;;;;5107021;28;20458;-69
2021/11/05 05:14:08;;;;;;;5.73;3.70;;;10.60;99.90;;;;;;5099454;28;20443;-69
2021/11/05 05:16:39;;;;;;;11.10;3.33;;;10.60;99.90;;;;;;5105154;28;20892;-69
2021/11/05 05:19:10;;;;;;;10.53;3.80;;;10.60;99.90;;;;;;5105055;28;20522;-69
2021/11/05 05:21:41;;;;;;;10.33;3.40;;;10.60;99.90;;;;;;5106315;28;21153;-69
2021/11/05 05:24:13;;;;;;;5.23;3.63;;;10.60;99.90;;;;;;5102380;28;21495;-69
2021/11/05 05:26:45;;;;;;;4.83;4.03;;;10.60;99.90;;;;;;5108568;28;20485;-69
2021/11/05 05:29:16;;;;;;;10.80;4.17;;;10.60;99.90;;;;;;5105693;28;20532;-69
2021/11/05 05:31:47;;;;;;;7.73;4.10;;;10.60;99.90;;;;;;5109364;28;20533;-69
2021/11/05 05:34:18;;;;;;;7.93;4.00;;;10.60;99.90;;;;;;5103023;28;20478;-69
2021/11/05 05:36:49;;;;;;;5.57;4.30;;;10.60;99.90;;;;;;5098496;28;20501;-69
2021/11/05 05:39:22;;;;;;;7.03;3.73;;;10.60;99.90;;;;;;5108451;28;20254;-69
2021/11/05 05:41:53;;;;;;;9.73;3.80;;;10.60;99.90;;;;;;5108509;28;20481;-69
2021/11/05 05:44:24;;;;;;;7.13;4.73;;;10.70;99.90;;;;;;5098163;28;20469;-69
2021/11/05 05:46:55;;;;;;;14.27;8.63;;;10.60;99.90;;;;;;5100548;28;20478;-69
2021/11/05 05:49:26;;;;;;;13.98;9.63;;;10.50;99.90;;;;;;5103969;28;20220;-69
2021/11/05 05:51:57;;;;;;;13.40;10.23;;;10.60;99.90;;;;;;5100437;28;20212;-69
2021/11/05 05:54:29;;;;;;;10.93;6.47;;;10.60;99.90;;;;;;5102872;28;20485;-69
2021/11/05 05:57:00;;;;;;;4.80;3.73;;;10.60;99.90;;;;;;5098370;28;21063;-69
2021/11/05 05:59:31;;;;;;;8.57;4.77;;;10.60;99.90;;;;;;5105474;28;20496;-69
2021/11/05 06:02:03;;;;;;;11.23;4.80;;;10.60;99.90;;;;;;5110301;28;20485;-69
2021/11/05 06:04:35;;;;;;;7.60;3.60;;;10.60;99.90;;;;;;5105880;28;20449;-69
2021/11/05 06:07:06;;;;;;;5.50;3.50;;;10.60;99.90;;;;;;5110777;28;20477;-69
2021/11/05 06:09:39;;;;;;;6.90;4.17;;;10.60;99.90;;;;;;5096313;28;20492;-69
2021/11/05 06:12:10;;;;;;;7.90;4.10;;;10.70;99.90;;;;;;5105546;28;20489;-70
2021/11/05 06:14:41;;;;;;;9.53;4.50;;;10.60;99.90;;;;;;5098338;28;20492;-69
2021/11/05 06:17:12;;;;;;;5.70;3.10;;;10.70;99.90;;;;;;5095796;27;20529;-69
2021/11/05 06:19:43;;;;;;;6.07;2.90;;;10.80;99.90;;;;;;5096410;28;20536;-69
2021/11/05 06:22:14;;;;;;;5.53;2.83;;;10.80;99.90;;;;;;5101143;28;20514;-69
2021/11/05 06:24:47;;;;;;;9.60;3.70;;;10.80;99.90;;;;;;5088604;28;20477;-69
2021/11/05 06:27:18;;;;;;;6.50;3.70;;;10.80;99.90;;;;;;5095425;28;20544;-69
2021/11/05 06:29:49;;;;;;;10.97;3.97;;;10.90;99.90;;;;;;5096129;28;20488;-69
2021/11/05 06:32:20;;;;;;;8.40;3.43;;;10.80;99.90;;;;;;5109988;28;20489;-69
2021/11/05 06:34:52;;;;;;;7.07;3.30;;;10.80;99.90;;;;;;5106323;28;20473;-70
2021/11/05 06:37:23;;;;;;;7.47;4.07;;;10.80;99.90;;;;;;5109847;28;20484;-69
2021/11/05 06:39:55;;;;;;;9.90;4.23;;;10.80;99.90;;;;;;5097363;28;20484;-69
2021/11/05 06:42:26;;;;;;;5.10;3.60;;;10.70;99.90;;;;;;5098555;28;20871;-69
2021/11/05 06:44:57;;;;;;;5.43;4.00;;;10.70;99.90;;;;;;5088218;28;20497;-69
2021/11/05 06:47:28;;;;;;;6.27;4.10;;;10.70;99.90;;;;;;5088973;28;20485;-70
2021/11/05 06:49:59;;;;;;;8.03;4.10;;;10.60;99.90;;;;;;5089164;28;20450;-70
2021/11/05 06:52:31;;;;;;;6.67;3.97;;;10.60;99.90;;;;;;5097537;28;20453;-69
2021/11/05 06:55:03;;;;;;;9.13;4.90;;;10.50;99.90;;;;;;5088211;28;20482;-69
2021/11/05 06:57:35;;;;;;;7.47;5.70;;;10.50;99.90;;;;;;5105473;28;20478;-69
2021/11/05 07:00:08;;;;;;;11.63;7.33;;;10.50;99.90;;;;;;5087575;28;20543;-69
2021/11/05 07:02:42;;;;;;;8.47;7.27;;;10.50;99.90;;;;;;5097691;28;20496;-68
2021/11/05 07:05:15;;;;;;;9.20;7.10;;;10.40;99.90;;;;;;5100685;28;20537;-69
2021/11/05 07:07:46;;;;;;;9.43;7.47;;;10.40;99.90;;;;;;5090778;28;20549;-69
2021/11/05 07:10:19;;;;;;;9.33;7.07;;;10.40;99.90;;;;;;5107500;28;20563;-70
2021/11/05 07:12:51;;;;;;;7.00;6.10;;;10.40;99.90;;;;;;5102972;28;20813;-70
2021/11/05 07:15:22;;;;;;;4.97;4.00;;;10.40;99.90;;;;;;5107857;28;20983;-68
2021/11/05 07:17:53;;;;;;;5.60;3.67;;;10.40;99.90;;;;;;5091801;28;20537;-68
2021/11/05 07:20:24;;;;;;;11.53;3.80;;;10.40;99.90;;;;;;5106679;28;20592;-69
2021/11/05 07:22:55;;;;;;;6.03;3.30;;;10.40;99.90;;;;;;5107126;28;20492;-68
2021/11/05 07:25:28;;;;;;;5.03;3.10;;;10.40;99.90;;;;;;5105306;28;20450;-68
2021/11/05 07:28:00;;;;;;;8.10;3.40;;;10.40;99.90;;;;;;5108326;28;20533;-69
2021/11/05 07:30:31;;;;;;;8.98;3.30;;;10.40;99.90;;;;;;5089951;28;20482;-69
2021/11/05 07:33:02;;;;;;;5.57;3.10;;;10.40;99.90;;;;;;5100666;28;20529;-69
2021/11/05 07:35:33;;;;;;;7.83;3.93;;;10.40;99.90;;;;;;5092342;28;20980;-69
2021/11/05 07:38:04;;;;;;;7.87;3.43;;;10.40;99.90;;;;;;5101223;28;20503;-68
2021/11/05 07:40:37;;;;;;;6.80;3.30;;;10.40;99.90;;;;;;5092215;28;20545;-69
2021/11/05 07:43:12;;;;;;;7.43;3.70;;;10.40;99.90;;;;;;5099463;28;20832;-68
2021/11/05 07:45:43;;;;;;;5.27;3.17;;;10.40;99.90;;;;;;5110720;27;20552;-68
2021/11/05 07:48:14;;;;;;;6.07;4.30;;;10.30;99.90;;;;;;5108132;28;20486;-68
2021/11/05 07:50:45;;;;;;;5.83;3.53;;;10.30;99.90;;;;;;5091278;28;20550;-68
2021/11/05 07:53:16;;;;;;;8.10;4.90;;;10.30;99.90;;;;;;5099949;28;20891;-68
2021/11/05 07:55:49;;;;;;;8.85;3.58;;;10.30;99.90;;;;;;5101404;28;20529;-69
2021/11/05 07:58:20;;;;;;;6.43;4.37;;;10.30;99.90;;;;;;5096321;28;20277;-69
2021/11/05 08:00:51;;;;;;;5.68;3.28;;;10.30;99.90;;;;;;5099827;28;20458;-68
2021/11/05 08:03:23;;;;;;;5.63;3.90;;;10.20;99.90;;;;;;5109365;28;20235;-68
2021/11/05 08:05:54;;;;;;;7.85;4.55;;;10.30;99.90;;;;;;5100924;28;20528;-68
2021/11/05 08:08:26;;;;;;;8.57;3.92;;;10.20;99.90;;;;;;5091437;28;20241;-69
2021/11/05 08:11:00;;;;;;;6.38;4.10;;;10.30;99.90;;;;;;5100711;28;20246;-68
2021/11/05 08:13:31;;;;;;;7.57;4.30;;;10.30;99.90;;;;;;5091296;28;20243;-69
2021/11/05 08:16:02;;;;;;;6.95;3.47;;;10.30;99.90;;;;;;5100720;28;20600;-68
2021/11/05 08:18:33;;;;;;;3.83;3.05;;;10.20;99.90;;;;;;5090617;28;20262;-69
2021/11/05 08:21:04;;;;;;;6.57;3.17;;;10.20;99.90;;;;;;5097895;28;20307;-68
2021/11/05 08:23:35;;;;;;;12.40;3.93;;;10.20;99.90;;;;;;5097967;28;20278;-69
2021/11/05 08:26:08;;;;;;;6.20;4.05;;;10.20;99.90;;;;;;5107065;28;20489;-68
2021/11/05 08:28:41;;;;;;;5.07;3.10;;;10.20;99.90;;;;;;5100807;28;20255;-69
2021/11/05 08:31:13;;;;;;;5.13;3.50;;;10.20;99.90;;;;;;5099610;28;20224;-68
2021/11/05 08:33:45;;;;;;;7.53;3.50;;;10.10;99.90;;;;;;5102868;28;20536;-69
2021/11/05 08:36:17;;;;;;;9.23;3.58;;;10.00;99.90;;;;;;5104416;28;20499;-68
2021/11/05 08:38:49;;;;;;;5.35;3.50;;;10.00;99.90;;;;;;5111184;28;20716;-68
2021/11/05 08:41:22;;;;;;;4.80;3.23;;;10.00;99.90;;;;;;5104890;28;20234;-68
2021/11/05 08:43:57;;;;;;;4.13;3.23;;;10.00;99.90;;;;;;5108016;28;20560;-69
2021/11/05 08:46:32;;;;;;;6.20;3.88;;;10.00;99.90;;;;;;5106464;28;20453;-69
2021/11/05 08:49:12;;;;;;;4.00;3.60;;;10.00;99.90;;;;;;5097342;28;20216;-68
2021/11/05 08:51:44;;;;;;;9.40;4.00;;;10.00;99.90;;;;;;5100262;28;20541;-68
2021/11/05 08:54:16;;;;;;;5.63;4.35;;;10.00;99.90;;;;;;5104129;28;20835;-69
2021/11/05 08:56:50;;;;;;;5.20;4.30;;;10.00;99.90;;;;;;5110369;28;20223;-69
2021/11/05 08:59:23;;;;;;;5.30;4.10;;;9.90;99.90;;;;;;5111432;28;20482;-68
2021/11/05 09:01:54;;;;;;;8.00;5.47;;;9.90;99.90;;;;;;5100486;28;20501;-68
2021/11/05 09:04:25;;;;;;;9.20;4.60;;;9.90;99.90;;;;;;5102387;28;20520;-70
2021/11/05 09:06:57;;;;;;;10.20;4.43;;;9.90;99.90;;;;;;5100038;28;20567;-69
2021/11/05 09:09:28;;;;;;;7.70;4.72;;;9.90;99.90;;;;;;5104730;28;20243;-69
2021/11/05 09:12:00;;;;;;;10.80;5.67;;;9.90;99.90;;;;;;5089352;28;20356;-68
2021/11/05 09:14:31;;;;;;;7.60;5.80;;;9.90;99.90;;;;;;5099543;28;20451;-68
2021/11/05 09:17:11;;;;;;;5.30;3.50;;;9.90;99.90;;;;;;5103602;28;20211;-68
2021/11/05 09:19:42;;;;;;;7.00;3.50;;;9.90;99.90;;;;;;5097865;27;20243;-68
2021/11/05 09:22:13;;;;;;;6.82;4.00;;;9.90;99.90;;;;;;5098332;28;20486;-69
2021/11/05 09:24:44;;;;;;;7.40;3.43;;;10.00;99.90;;;;;;5099157;28;20652;-69
2021/11/05 09:27:17;;;;;;;7.05;3.08;;;10.00;99.90;;;;;;5111565;28;20543;-69
2021/11/05 09:29:48;;;;;;;7.38;3.15;;;10.10;99.90;;;;;;5094723;28;20240;-68
2021/11/05 09:32:19;;;;;;;6.83;3.90;;;10.20;99.90;;;;;;5104512;28;20247;-69
2021/11/05 09:34:50;;;;;;;5.30;2.93;;;10.20;99.90;;;;;;5094440;28;21015;-69
2021/11/05 09:37:21;;;;;;;4.33;2.73;;;10.30;99.90;;;;;;5104630;28;20492;-69
2021/11/05 09:39:51;;;;;;;6.20;3.40;;;10.30;99.90;;;;;;5089171;28;20491;-69
2021/11/05 09:42:24;;;;;;;6.93;3.73;;;10.30;99.90;;;;;;5090707;28;20614;-68
2021/11/05 09:44:55;;;;;;;4.80;3.60;;;10.30;99.90;;;;;;5107792;28;20576;-70
2021/11/05 09:47:27;;;;;;;8.00;3.57;;;10.30;99.90;;;;;;5111707;28;20481;-68
2021/11/05 09:49:58;;;;;;;3.73;3.00;;;10.30;99.90;;;;;;5090595;28;20450;-69
2021/11/05 09:52:30;;;;;;;4.50;2.90;;;10.30;99.90;;;;;;5088551;28;20489;-69
2021/11/05 09:55:04;;;;;;;7.10;3.40;;;10.40;99.90;;;;;;5088767;28;20481;-73
2021/11/05 09:57:37;;;;;;;4.40;2.60;;;10.40;99.90;;;;;;5101880;28;20486;-69
2021/11/05 10:00:15;;;;;;;4.63;2.50;;;10.40;99.90;;;;;;5107185;28;20453;-69
2021/11/05 10:02:47;;;;;;;9.70;3.70;;;10.40;99.90;;;;;;5113207;28;20497;-69
2021/11/05 10:05:19;;;;;;;4.17;2.97;;;10.40;99.90;;;;;;5103936;28;20528;-75
2021/11/05 10:07:51;;;;;;;6.05;2.75;;;10.40;99.90;;;;;;5096266;28;20553;-71
2021/11/05 10:10:26;;;;;;;8.95;3.08;;;10.40;99.90;;;;;;5102880;28;20309;-73
2021/11/05 10:13:03;;;;;;;4.73;3.20;;;10.40;99.90;;;;;;5101032;28;20215;-71
2021/11/05 10:15:44;;;;;;;6.13;3.10;;;10.30;99.90;;;;;;5109151;28;20510;-70
2021/11/05 10:18:18;;;;;;;2.73;2.37;;;10.30;99.90;;;;;;5089091;28;20489;-69
2021/11/05 10:20:51;;;;;;;5.45;2.20;;;10.30;99.90;;;;;;5098810;28;20485;-71
2021/11/05 10:23:22;;;;;;;3.63;2.43;;;10.30;99.90;;;;;;5098415;28;20302;-69
2021/11/05 10:25:53;;;;;;;5.90;2.33;;;10.40;99.90;;;;;;5098271;28;20481;-69
2021/11/05 10:28:28;;;;;;;4.35;2.63;;;10.40;99.90;;;;;;5099133;28;20255;-79
2021/11/05 10:31:01;;;;;;;3.88;2.20;;;10.60;99.90;;;;;;5100020;28;20242;-72
2021/11/05 10:33:37;;;;;;;4.70;2.70;;;10.70;99.90;;;;;;5107380;28;20760;-73
2021/11/05 10:36:10;;;;;;;9.50;2.90;;;10.70;99.90;;;;;;5100888;28;20477;-74
2021/11/05 10:38:42;;;;;;;6.90;2.10;;;10.80;99.90;;;;;;5109966;28;20449;-69
2021/11/05 10:41:17;;;;;;;3.93;2.20;;;10.90;99.90;;;;;;5094735;28;20442;-69
2021/11/05 10:43:51;;;;;;;2.90;1.85;;;11.00;99.90;;;;;;5098520;28;20453;-70
2021/11/05 10:46:29;;;;;;;3.73;2.00;;;11.00;99.90;;;;;;5108635;28;20609;-69
2021/11/05 10:49:02;;;;;;;4.10;2.30;;;11.00;99.90;;;;;;5104889;28;20488;-69
2021/11/05 10:51:34;;;;;;;2.77;2.50;;;10.90;99.90;;;;;;5114389;28;20884;-69
2021/11/05 10:54:05;;;;;;;4.97;2.50;;;10.90;99.90;;;;;;5107389;28;20954;-68
2021/11/05 10:56:36;;;;;;;2.60;1.70;;;10.90;99.90;;;;;;5117010;28;20460;-70
2021/11/05 10:59:10;;;;;;;4.50;2.03;;;11.00;99.90;;;;;;5108556;28;20536;-69
2021/11/05 11:01:42;;;;;;;3.47;1.63;;;11.00;99.90;;;;;;5106897;28;20557;-69
2021/11/05 11:04:14;;;;;;;2.73;1.63;;;11.00;99.90;;;;;;5093208;28;20580;-73
2021/11/05 11:06:46;;;;;;;2.87;1.63;;;11.00;99.90;;;;;;5102053;28;20533;-70
2021/11/05 11:09:19;;;;;;;2.80;1.50;;;11.00;99.90;;;;;;5100937;28;20493;-77
2021/11/05 11:11:52;;;;;;;8.60;2.20;;;11.10;99.90;;;;;;5101386;28;20512;-75
2021/11/05 11:14:31;;;;;;;2.23;1.70;;;11.20;99.90;;;;;;5093775;28;20486;-69
2021/11/05 11:17:04;;;;;;;5.90;1.90;;;11.20;99.90;;;;;;5091706;28;20541;-77
2021/11/05 11:19:36;;;;;;;7.80;2.40;;;11.20;99.90;;;;;;5091640;28;20537;-70
2021/11/05 11:22:09;;;;;;;6.73;1.90;;;11.20;99.90;;;;;;5094875;28;20488;-77
2021/11/05 11:24:41;;;;;;;4.97;1.80;;;11.20;99.90;;;;;;5096417;28;20521;-76
2021/11/05 11:27:16;;;;;;;3.53;1.93;;;11.20;99.90;;;;;;5094081;28;20453;-70
2021/11/05 11:29:58;;;;;;;3.93;1.37;;;11.20;99.90;;;;;;5100941;28;20449;-70
2021/11/05 11:32:30;;;;;;;3.80;1.53;;;11.20;99.90;;;;;;5112604;28;20481;-69
2021/11/05 11:35:01;;;;;;;3.53;2.13;;;11.10;99.90;;;;;;5091809;28;20481;-70
2021/11/05 11:37:35;;;;;;;4.30;1.80;;;11.10;99.90;;;;;;5103079;28;20581;-74
2021/11/05 11:40:07;;;;;;;3.90;2.20;;;11.10;99.90;;;;;;5091664;28;20446;-70
2021/11/05 11:42:40;;;;;;;5.70;3.20;;;11.00;99.90;;;;;;5099396;28;20477;-71
2021/11/05 11:45:14;;;;;;;4.83;1.87;;;11.00;99.90;;;;;;5103946;28;20522;-71
2021/11/05 11:47:47;;;;;;;6.23;1.83;;;11.00;99.90;;;;;;5101222;28;20485;-72
2021/11/05 11:50:26;;;;;;;4.93;2.07;;;11.00;99.90;;;;;;5093036;28;20541;-70
2021/11/05 11:53:03;;;;;;;3.70;2.00;;;11.00;99.90;;;;;;5099938;28;20537;-70
2021/11/05 11:55:35;;;;;;;4.53;2.00;;;11.00;99.90;;;;;;5109978;28;20445;-70
2021/11/05 11:58:15;;;;;;;3.17;2.10;;;10.90;99.90;;;;;;5102370;28;21022;-71
2021/11/05 12:00:50;;;;;;;6.10;2.20;;;10.90;99.90;;;;;;5103683;28;20445;-70
2021/11/05 12:03:27;;;;;;;4.27;2.07;;;10.90;99.90;;;;;;5110570;28;20469;-71
2021/11/05 12:06:02;;;;;;;3.60;1.80;;;10.90;99.90;;;;;;5101815;28;20487;-71
2021/11/05 12:08:44;;;;;;;1.97;1.77;;;10.90;99.90;;;;;;5091575;28;20556;-71
2021/11/05 12:11:27;;;;;;;3.13;1.80;;;10.90;99.90;;;;;;5101490;28;20482;-71
2021/11/05 12:14:09;;;;;;;3.10;2.17;;;10.80;99.90;;;;;;5099751;28;20485;-70
2021/11/05 12:16:42;;;;;;;3.87;1.87;;;10.80;99.90;;;;;;5104233;28;20448;-71
2021/11/05 12:19:22;;;;;;;2.30;2.07;;;10.70;99.90;;;;;;5100920;28;20968;-70
2021/11/05 12:22:12;;;;;;;3.83;1.60;;;10.70;99.90;;;;;;5107939;28;20489;-69
2021/11/05 12:24:44;;;;;;;3.07;2.00;;;10.70;99.90;;;;;;5098941;28;20532;-69
2021/11/05 12:27:27;;;;;;;2.80;2.00;;;10.80;99.90;;;;;;5092563;28;20529;-70
2021/11/05 12:30:00;;;;;;;4.23;1.97;;;10.70;99.90;;;;;;5100957;28;20471;-69
2021/11/05 12:32:37;;;;;;;3.97;1.83;;;10.70;99.90;;;;;;5111712;28;20537;-69
2021/11/05 12:35:28;;;;;;;2.53;1.60;;;10.80;99.90;;;;;;5091176;28;20511;-70
2021/11/05 12:38:10;;;;;;;3.60;2.30;;;10.90;99.90;;;;;;5099887;28;20510;-69
2021/11/05 12:40:56;;;;;;;6.83;2.83;;;10.80;99.90;;;;;;5091116;28;20486;-69
2021/11/05 12:43:50;;;;;;;7.32;2.08;;;10.90;99.90;;;;;;5100586;28;20481;-70
2021/11/05 12:46:23;;;;;;;1.53;1.20;;;10.90;99.90;;;;;;5091670;28;20574;-69
2021/11/05 12:49:01;;;;;;;3.60;2.33;;;10.90;99.90;;;;;;5098528;28;20500;-70
2021/11/05 12:51:41;;;;;;;2.23;1.60;;;10.90;99.90;;;;;;5104744;28;20231;-70
2021/11/05 12:54:15;;;;;;;3.45;1.70;;;10.90;99.90;;;;;;5101537;28;20956;-70
2021/11/05 12:56:52;;;;;;;4.23;2.10;;;10.90;99.90;;;;;;5109923;28;20245;-70
2021/11/05 12:59:25;;;;;;;3.93;2.33;;;10.90;99.90;;;;;;5103741;28;20450;-70
2021/11/05 13:01:59;;;;;;;2.03;1.93;;;10.90;99.90;;;;;;5089431;28;20517;-69
2021/11/05 13:04:33;;;;;;;4.80;2.33;;;10.90;99.90;;;;;;5101189;28;20542;-69
2021/11/05 13:07:06;;;;;;;3.93;2.10;;;10.90;99.90;;;;;;5098087;28;20482;-69
2021/11/05 13:09:40;;;;;;;3.35;2.25;;;10.90;99.90;;;;;;5101806;28;20461;-69
2021/11/05 13:12:15;;;;;;;2.50;1.73;;;10.90;99.90;;;;;;5100928;28;20244;-68